Warco, Kentucky
Current Conditions -  °F | °C
As of 6:55 PM on Sunday 23 Nov 2014 (Local Time) from KPBX Reporting Station
Light Rain Light Rain  
Wind Chill: 58°   Ceiling: 8000
Heat Index: 58°   Visibility: 10mi
Dew Point: 51°   Wind: 14mph
Humidity: 75%   Direction: 150°SSE
Pressure: 29.62"   Gusts: 28mph
Location:  37.5428°N, 82.8043°W
Report Text: KPBX 232355Z AUTO 15012G24KT 120V200 10SM -RA SCT060 BKN080 OVC100 15/10 A2962 RMK AO2 T01470103 10150 20123
Loading
Personal Weather Stations






























Interactive Weather Map New forecast layout! Learn more

10-Day Weather Forecast

Advertisements
Track Severe Weather on mobile